Terminal Aerodrome Forecast
Issued by NWS

Home | Current Version | Previous Version | Text Only | Print | Product List | Glossary Off
Versions: 1 2 3 4 5 6 7 8 9 10 11 12 13 14 15 16 17 18 19 20

000
FTUS43 KBIS 200500
TAFJMS
TAF
KJMS 200520Z 2006/2106 16003KT P6SM SCT050
     FM201400 15008KT P6SM SCT250
     FM201700 15012KT P6SM BKN200
     FM202100 16012KT P6SM VCSH OVC080=

USA.gov is the U.S. government's official web portal to all federal, state and local government web resources and services.